sensor_id;sensor_type;location;lat;lon;timestamp;pressure;altitude;pressure_sealevel;temperature;humidity
75543;BME280;64129;53.508;10.476;2023-04-03T00:00:33;102848.97;;;0.26;78.14
75543;BME280;64129;53.508;10.476;2023-04-03T00:02:59;102852.34;;;0.24;78.37
75543;BME280;64129;53.508;10.476;2023-04-03T00:05:26;102859.84;;;0.18;78.54
75543;BME280;64129;53.508;10.476;2023-04-03T00:07:53;102855.41;;;0.33;77.53
75543;BME280;64129;53.508;10.476;2023-04-03T00:10:19;102854.38;;;0.13;78.86
75543;BME280;64129;53.508;10.476;2023-04-03T00:12:46;102865.34;;;0.06;78.67
75543;BME280;64129;53.508;10.476;2023-04-03T00:15:12;102857.91;;;0.14;78.68
75543;BME280;64129;53.508;10.476;2023-04-03T00:17:39;102859.53;;;0.12;78.56
75543;BME280;64129;53.508;10.476;2023-04-03T00:20:06;102858.97;;;0.01;78.48
75543;BME280;64129;53.508;10.476;2023-04-03T00:22:33;102863.84;;;-0.05;78.68
75543;BME280;64129;53.508;10.476;2023-04-03T00:24:59;102863.94;;;-0.04;78.67
75543;BME280;64129;53.508;10.476;2023-04-03T00:27:26;102858.78;;;-0.02;78.74
75543;BME280;64129;53.508;10.476;2023-04-03T00:29:52;102859.53;;;-0.21;78.98
75543;BME280;64129;53.508;10.476;2023-04-03T00:32:19;102856.75;;;-0.08;78.65
75543;BME280;64129;53.508;10.476;2023-04-03T00:34:45;102857.97;;;-0.01;78.33
75543;BME280;64129;53.508;10.476;2023-04-03T00:37:12;102856.91;;;-0.05;78.45
75543;BME280;64129;53.508;10.476;2023-04-03T00:39:39;102873.97;;;-0.11;79.11
75543;BME280;64129;53.508;10.476;2023-04-03T00:42:06;102870.53;;;-0.26;79.14
75543;BME280;64129;53.508;10.476;2023-04-03T00:47:00;102876.25;;;-0.17;79.17
75543;BME280;64129;53.508;10.476;2023-04-03T00:49:27;102879.25;;;-0.26;79.54
75543;BME280;64129;53.508;10.476;2023-04-03T00:51:55;102879.25;;;-0.26;79.28
75543;BME280;64129;53.508;10.476;2023-04-03T00:54:23;102876.56;;;-0.11;79.28
75543;BME280;64129;53.508;10.476;2023-04-03T00:56:51;102878.53;;;-0.07;78.76
75543;BME280;64129;53.508;10.476;2023-04-03T00:59:22;102877.72;;;-0.22;79.23
75543;BME280;64129;53.508;10.476;2023-04-03T01:01:56;102873.97;;;-0.11;79.60
75543;BME280;64129;53.508;10.476;2023-04-03T01:04:37;102880.50;;;-0.03;79.07
75543;BME280;64129;53.508;10.476;2023-04-03T01:07:11;102879.84;;;-0.15;78.50
75543;BME280;64129;53.508;10.476;2023-04-03T01:09:39;102884.41;;;-0.11;78.95
75543;BME280;64129;53.508;10.476;2023-04-03T01:12:34;102887.56;;;-0.33;79.83
75543;BME280;64129;53.508;10.476;2023-04-03T01:15:04;102882.03;;;-0.23;79.23
75543;BME280;64129;53.508;10.476;2023-04-03T01:17:39;102880.25;;;-0.24;78.64
75543;BME280;64129;53.508;10.476;2023-04-03T01:25:40;102872.13;;;-0.45;79.16
75543;BME280;64129;53.508;10.476;2023-04-03T01:28:32;102874.16;;;-0.39;79.08
75543;BME280;64129;53.508;10.476;2023-04-03T01:33:23;102879.88;;;-0.46;79.34
75543;BME280;64129;53.508;10.476;2023-04-03T01:35:49;102884.81;;;-0.51;79.40
75543;BME280;64129;53.508;10.476;2023-04-03T01:38:17;102891.34;;;-0.59;79.46
75543;BME280;64129;53.508;10.476;2023-04-03T01:40:44;102890.44;;;-0.59;79.34
75543;BME280;64129;53.508;10.476;2023-04-03T01:43:11;102882.81;;;-0.40;78.99
75543;BME280;64129;53.508;10.476;2023-04-03T01:45:38;102881.78;;;-0.58;79.26
75543;BME280;64129;53.508;10.476;2023-04-03T01:48:04;102889.88;;;-0.54;79.65
75543;BME280;64129;53.508;10.476;2023-04-03T01:50:31;102887.75;;;-0.61;79.35
75543;BME280;64129;53.508;10.476;2023-04-03T01:52:58;102883.09;;;-0.67;79.56
75543;BME280;64129;53.508;10.476;2023-04-03T01:55:24;102887.03;;;-0.73;79.42
75543;BME280;64129;53.508;10.476;2023-04-03T01:57:50;102891.00;;;-0.65;78.78
75543;BME280;64129;53.508;10.476;2023-04-03T02:00:17;102889.19;;;-0.66;79.14
75543;BME280;64129;53.508;10.476;2023-04-03T02:02:44;102893.78;;;-0.62;79.29
75543;BME280;64129;53.508;10.476;2023-04-03T02:05:10;102881.38;;;-0.66;79.93
75543;BME280;64129;53.508;10.476;2023-04-03T02:07:37;102888.00;;;-0.71;79.41
75543;BME280;64129;53.508;10.476;2023-04-03T02:10:04;102885.41;;;-0.71;79.65
75543;BME280;64129;53.508;10.476;2023-04-03T02:12:31;102885.78;;;-0.80;80.25
75543;BME280;64129;53.508;10.476;2023-04-03T02:14:57;102889.28;;;-0.79;80.14
75543;BME280;64129;53.508;10.476;2023-04-03T02:17:25;102894.41;;;-0.66;79.18
75543;BME280;64129;53.508;10.476;2023-04-03T02:19:54;102891.25;;;-0.75;79.49
75543;BME280;64129;53.508;10.476;2023-04-03T02:22:20;102893.19;;;-0.87;79.69
75543;BME280;64129;53.508;10.476;2023-04-03T02:24:47;102894.97;;;-0.86;79.55
75543;BME280;64129;53.508;10.476;2023-04-03T02:27:14;102900.03;;;-0.89;80.04
75543;BME280;64129;53.508;10.476;2023-04-03T02:29:41;102902.44;;;-0.92;79.74
75543;BME280;64129;53.508;10.476;2023-04-03T02:32:07;102893.66;;;-0.95;79.84
75543;BME280;64129;53.508;10.476;2023-04-03T02:34:34;102885.81;;;-0.95;79.95
75543;BME280;64129;53.508;10.476;2023-04-03T02:37:01;102887.44;;;-0.97;79.81
75543;BME280;64129;53.508;10.476;2023-04-03T02:39:28;102881.75;;;-0.89;79.35
75543;BME280;64129;53.508;10.476;2023-04-03T02:41:56;102885.47;;;-1.01;79.11
75543;BME280;64129;53.508;10.476;2023-04-03T02:44:24;102894.47;;;-0.96;79.43
75543;BME280;64129;53.508;10.476;2023-04-03T02:46:51;102887.34;;;-0.98;79.24
75543;BME280;64129;53.508;10.476;2023-04-03T02:49:18;102898.13;;;-1.07;79.70
75543;BME280;64129;53.508;10.476;2023-04-03T02:51:44;102891.59;;;-1.00;79.53
75543;BME280;64129;53.508;10.476;2023-04-03T02:54:12;102894.09;;;-1.02;79.68
75543;BME280;64129;53.508;10.476;2023-04-03T02:56:42;102898.41;;;-1.02;79.23
75543;BME280;64129;53.508;10.476;2023-04-03T02:59:09;102895.50;;;-1.07;79.73
75543;BME280;64129;53.508;10.476;2023-04-03T03:01:37;102898.59;;;-1.14;79.47
75543;BME280;64129;53.508;10.476;2023-04-03T03:04:04;102894.25;;;-1.13;80.07
75543;BME280;64129;53.508;10.476;2023-04-03T03:06:30;102891.75;;;-1.12;80.01
75543;BME280;64129;53.508;10.476;2023-04-03T03:08:57;102893.81;;;-1.21;80.24
75543;BME280;64129;53.508;10.476;2023-04-03T03:11:24;102898.22;;;-1.20;80.50
75543;BME280;64129;53.508;10.476;2023-04-03T03:13:52;102895.00;;;-1.16;80.31
75543;BME280;64129;53.508;10.476;2023-04-03T03:16:18;102894.09;;;-1.16;80.23
75543;BME280;64129;53.508;10.476;2023-04-03T03:18:45;102898.78;;;-1.26;80.33
75543;BME280;64129;53.508;10.476;2023-04-03T03:21:11;102890.69;;;-1.15;80.07
75543;BME280;64129;53.508;10.476;2023-04-03T03:23:38;102898.34;;;-1.04;79.46
75543;BME280;64129;53.508;10.476;2023-04-03T03:26:07;102894.63;;;-1.22;79.75
75543;BME280;64129;53.508;10.476;2023-04-03T03:28:35;102894.44;;;-1.10;79.51
75543;BME280;64129;53.508;10.476;2023-04-03T03:31:04;102891.41;;;-1.18;80.19
75543;BME280;64129;53.508;10.476;2023-04-03T03:33:31;102890.69;;;-1.30;80.71
75543;BME280;64129;53.508;10.476;2023-04-03T03:35:59;102890.69;;;-1.30;80.15
75543;BME280;64129;53.508;10.476;2023-04-03T03:38:26;102892.84;;;-1.23;79.89
75543;BME280;64129;53.508;10.476;2023-04-03T03:40:53;102884.03;;;-1.25;80.06
75543;BME280;64129;53.508;10.476;2023-04-03T03:43:21;102885.81;;;-1.24;79.67
75543;BME280;64129;53.508;10.476;2023-04-03T03:45:51;102891.22;;;-1.21;79.50
75543;BME280;64129;53.508;10.476;2023-04-03T03:48:19;102886.63;;;-1.25;79.01
75543;BME280;64129;53.508;10.476;2023-04-03T03:50:47;102887.44;;;-1.26;79.87
75543;BME280;64129;53.508;10.476;2023-04-03T03:53:16;102886.19;;;-1.33;80.01
75543;BME280;64129;53.508;10.476;2023-04-03T03:55:42;102888.53;;;-1.22;79.36
75543;BME280;64129;53.508;10.476;2023-04-03T03:58:09;102897.69;;;-1.29;80.12
75543;BME280;64129;53.508;10.476;2023-04-03T04:00:36;102894.09;;;-1.16;79.51
75543;BME280;64129;53.508;10.476;2023-04-03T04:03:03;102900.03;;;-1.19;80.07
75543;BME280;64129;53.508;10.476;2023-04-03T04:05:30;102892.66;;;-1.26;80.04
75543;BME280;64129;53.508;10.476;2023-04-03T04:07:59;102892.72;;;-1.10;79.71
75543;BME280;64129;53.508;10.476;2023-04-03T04:10:26;102900.19;;;-1.16;79.83
75543;BME280;64129;53.508;10.476;2023-04-03T04:12:53;102900.84;;;-1.20;80.07
75543;BME280;64129;53.508;10.476;2023-04-03T04:15:22;102906.84;;;-1.21;79.85
75543;BME280;64129;53.508;10.476;2023-04-03T04:17:49;102907.50;;;-1.25;79.63
75543;BME280;64129;53.508;10.476;2023-04-03T04:20:16;102901.91;;;-1.31;80.19
75543;BME280;64129;53.508;10.476;2023-04-03T04:22:43;102912.25;;;-1.33;80.22
75543;BME280;64129;53.508;10.476;2023-04-03T04:25:10;102909.16;;;-1.40;80.84
75543;BME280;64129;53.508;10.476;2023-04-03T04:27:38;102897.34;;;-1.35;80.27
75543;BME280;64129;53.508;10.476;2023-04-03T04:30:05;102903.97;;;-1.26;79.85
75543;BME280;64129;53.508;10.476;2023-04-03T04:32:32;102903.25;;;-1.23;79.77
75543;BME280;64129;53.508;10.476;2023-04-03T04:34:59;102924.13;;;-1.38;80.51
75543;BME280;64129;53.508;10.476;2023-04-03T04:37:28;102923.22;;;-1.38;80.92
75543;BME280;64129;53.508;10.476;2023-04-03T04:39:55;102912.06;;;-1.36;80.39
75543;BME280;64129;53.508;10.476;2023-04-03T04:42:22;102919.09;;;-1.35;80.25
75543;BME280;64129;53.508;10.476;2023-04-03T04:44:49;102916.75;;;-1.30;79.96
75543;BME280;64129;53.508;10.476;2023-04-03T04:47:15;102922.84;;;-1.30;80.07
75543;BME280;64129;53.508;10.476;2023-04-03T04:49:43;102926.00;;;-1.35;80.10
75543;BME280;64129;53.508;10.476;2023-04-03T04:52:10;102934.13;;;-1.44;79.82
75543;BME280;64129;53.508;10.476;2023-04-03T04:54:38;102937.94;;;-1.39;80.06
75543;BME280;64129;53.508;10.476;2023-04-03T04:57:05;102933.00;;;-1.34;79.77
75543;BME280;64129;53.508;10.476;2023-04-03T04:59:32;102941.25;;;-1.41;79.76
75543;BME280;64129;53.508;10.476;2023-04-03T05:01:59;102937.91;;;-1.53;80.40
75543;BME280;64129;53.508;10.476;2023-04-03T05:04:26;102945.28;;;-1.46;81.06
75543;BME280;64129;53.508;10.476;2023-04-03T05:06:59;102942.44;;;-1.36;80.16
75543;BME280;64129;53.508;10.476;2023-04-03T05:09:28;102951.06;;;-1.37;80.13
75543;BME280;64129;53.508;10.476;2023-04-03T05:11:55;102943.03;;;-1.40;80.16
75543;BME280;64129;53.508;10.476;2023-04-03T05:14:25;102942.63;;;-1.33;79.89
75543;BME280;64129;53.508;10.476;2023-04-03T05:16:53;102949.81;;;-1.29;80.31
75543;BME280;64129;53.508;10.476;2023-04-03T05:19:22;102953.41;;;-1.27;80.48
75543;BME280;64129;53.508;10.476;2023-04-03T05:21:50;102953.78;;;-1.21;80.00
75543;BME280;64129;53.508;10.476;2023-04-03T05:24:17;102952.53;;;-1.13;80.21
75543;BME280;64129;53.508;10.476;2023-04-03T05:26:44;102952.53;;;-1.13;80.17
75543;BME280;64129;53.508;10.476;2023-04-03T05:29:12;102962.94;;;-1.13;80.45
75543;BME280;64129;53.508;10.476;2023-04-03T05:31:39;102960.53;;;-1.10;80.90
75543;BME280;64129;53.508;10.476;2023-04-03T05:34:08;102963.53;;;-1.04;80.51
75543;BME280;64129;53.508;10.476;2023-04-03T05:36:36;102957.22;;;-0.92;80.87
75543;BME280;64129;53.508;10.476;2023-04-03T05:39:05;102962.06;;;-0.99;80.81
75543;BME280;64129;53.508;10.476;2023-04-03T05:41:35;102971.34;;;-1.04;80.58
75543;BME280;64129;53.508;10.476;2023-04-03T05:44:01;102970.63;;;-0.86;80.38
75543;BME280;64129;53.508;10.476;2023-04-03T05:46:28;102970.25;;;-0.92;80.03
75543;BME280;64129;53.508;10.476;2023-04-03T05:48:56;102976.28;;;-0.93;80.31
75543;BME280;64129;53.508;10.476;2023-04-03T05:51:35;102978.25;;;-0.89;80.55
75543;BME280;64129;53.508;10.476;2023-04-03T05:54:16;102973.56;;;-0.80;80.42
75543;BME280;64129;53.508;10.476;2023-04-03T05:56:44;102975.38;;;-0.79;81.66
75543;BME280;64129;53.508;10.476;2023-04-03T05:59:11;102982.00;;;-0.70;81.18
75543;BME280;64129;53.508;10.476;2023-04-03T06:01:38;102979.25;;;-0.58;80.64
75543;BME280;64129;53.508;10.476;2023-04-03T06:04:05;102982.72;;;-0.43;81.21
75543;BME280;64129;53.508;10.476;2023-04-03T06:06:44;102980.91;;;-0.44;81.52
75543;BME280;64129;53.508;10.476;2023-04-03T06:09:11;102978.75;;;-0.36;81.37
75543;BME280;64129;53.508;10.476;2023-04-03T06:11:38;102980.44;;;-0.37;81.89
75543;BME280;64129;53.508;10.476;2023-04-03T06:14:05;102988.66;;;-0.30;81.20
75543;BME280;64129;53.508;10.476;2023-04-03T06:16:32;102981.34;;;-0.21;80.54
75543;BME280;64129;53.508;10.476;2023-04-03T06:18:58;102980.69;;;-0.17;81.06
75543;BME280;64129;53.508;10.476;2023-04-03T06:21:25;102985.78;;;-0.04;80.15
75543;BME280;64129;53.508;10.476;2023-04-03T06:23:52;102982.44;;;-0.02;80.19
75543;BME280;64129;53.508;10.476;2023-04-03T06:26:19;102981.16;;;0.07;80.44
75543;BME280;64129;53.508;10.476;2023-04-03T06:28:47;102989.25;;;0.11;81.38
75543;BME280;64129;53.508;10.476;2023-04-03T06:31:13;102988.78;;;0.18;80.87
75543;BME280;64129;53.508;10.476;2023-04-03T06:33:40;102988.22;;;0.56;83.70
75543;BME280;64129;53.508;10.476;2023-04-03T06:36:07;102987.41;;;0.41;81.46
75543;BME280;64129;53.508;10.476;2023-04-03T06:38:34;102993.69;;;0.61;79.69
75543;BME280;64129;53.508;10.476;2023-04-03T06:41:01;102990.41;;;0.65;78.61
75543;BME280;64129;53.508;10.476;2023-04-03T06:43:27;102990.13;;;0.75;77.23
75543;BME280;64129;53.508;10.476;2023-04-03T06:45:54;102994.41;;;0.91;77.70
75543;BME280;64129;53.508;10.476;2023-04-03T06:48:21;102995.78;;;1.01;77.44
75543;BME280;64129;53.508;10.476;2023-04-03T06:50:47;103005.56;;;1.21;77.49
75543;BME280;64129;53.508;10.476;2023-04-03T06:53:14;103005.28;;;1.33;76.97
75543;BME280;64129;53.508;10.476;2023-04-03T06:55:41;103005.56;;;1.39;76.00
75543;BME280;64129;53.508;10.476;2023-04-03T06:58:07;103010.41;;;1.47;74.02
75543;BME280;64129;53.508;10.476;2023-04-03T07:00:34;103005.75;;;1.60;74.64
75543;BME280;64129;53.508;10.476;2023-04-03T07:03:00;103007.13;;;1.87;75.22
75543;BME280;64129;53.508;10.476;2023-04-03T07:05:27;103013.34;;;2.63;75.13
75543;BME280;64129;53.508;10.476;2023-04-03T07:07:53;102995.09;;;4.81;66.22
75543;BME280;64129;53.508;10.476;2023-04-03T07:10:20;103009.84;;;3.43;68.25
75543;BME280;64129;53.508;10.476;2023-04-03T07:12:46;103014.72;;;2.94;70.20
75543;BME280;64129;53.508;10.476;2023-04-03T07:15:13;103017.63;;;2.80;69.37
75543;BME280;64129;53.508;10.476;2023-04-03T07:17:40;103008.06;;;3.02;69.33
75543;BME280;64129;53.508;10.476;2023-04-03T07:20:08;103005.44;;;3.02;69.45
75543;BME280;64129;53.508;10.476;2023-04-03T07:22:35;103013.44;;;3.24;66.94
75543;BME280;64129;53.508;10.476;2023-04-03T07:25:01;103006.06;;;4.45;68.61
75543;BME280;64129;53.508;10.476;2023-04-03T07:27:29;103005.72;;;3.70;65.74
75543;BME280;64129;53.508;10.476;2023-04-03T07:29:55;103009.34;;;3.52;66.13
75543;BME280;64129;53.508;10.476;2023-04-03T07:32:22;103008.88;;;3.62;65.75
75543;BME280;64129;53.508;10.476;2023-04-03T07:34:49;103019.03;;;3.53;64.70
75543;BME280;64129;53.508;10.476;2023-04-03T07:37:15;103020.22;;;3.61;64.26
75543;BME280;64129;53.508;10.476;2023-04-03T07:39:44;103010.72;;;3.85;65.50
75543;BME280;64129;53.508;10.476;2023-04-03T07:42:11;103023.41;;;3.74;64.02
75543;BME280;64129;53.508;10.476;2023-04-03T07:44:38;103023.75;;;3.82;62.88
75543;BME280;64129;53.508;10.476;2023-04-03T07:47:05;103021.50;;;3.91;62.98
75543;BME280;64129;53.508;10.476;2023-04-03T07:49:31;103015.34;;;4.13;61.99
75543;BME280;64129;53.508;10.476;2023-04-03T07:51:59;103015.28;;;4.12;61.56
75543;BME280;64129;53.508;10.476;2023-04-03T07:54:25;103024.28;;;4.17;61.76
75543;BME280;64129;53.508;10.476;2023-04-03T07:56:52;103020.28;;;4.50;60.71
75543;BME280;64129;53.508;10.476;2023-04-03T07:59:19;103025.34;;;4.68;61.58
75543;BME280;64129;53.508;10.476;2023-04-03T08:01:45;103010.59;;;4.95;58.97
75543;BME280;64129;53.508;10.476;2023-04-03T08:04:12;103015.06;;;4.98;58.02
75543;BME280;64129;53.508;10.476;2023-04-03T08:06:39;103012.56;;;5.26;59.32
75543;BME280;64129;53.508;10.476;2023-04-03T08:09:10;103013.16;;;5.19;57.06
75543;BME280;64129;53.508;10.476;2023-04-03T08:11:39;103015.91;;;5.48;57.76
75543;BME280;64129;53.508;10.476;2023-04-03T08:14:05;103008.22;;;5.54;57.87
75543;BME280;64129;53.508;10.476;2023-04-03T08:16:32;103003.84;;;5.81;55.69
75543;BME280;64129;53.508;10.476;2023-04-03T08:18:59;103015.13;;;6.03;56.61
75543;BME280;64129;53.508;10.476;2023-04-03T08:21:25;103019.53;;;6.02;54.68
75543;BME280;64129;53.508;10.476;2023-04-03T08:23:52;103022.13;;;6.01;55.43
75543;BME280;64129;53.508;10.476;2023-04-03T08:26:20;103014.41;;;5.81;52.79
75543;BME280;64129;53.508;10.476;2023-04-03T08:28:48;103014.72;;;6.17;51.51
75543;BME280;64129;53.508;10.476;2023-04-03T08:31:17;103019.00;;;6.14;52.55
75543;BME280;64129;53.508;10.476;2023-04-03T08:33:45;103015.03;;;6.27;50.28
75543;BME280;64129;53.508;10.476;2023-04-03T08:36:35;103010.91;;;6.36;49.30
75543;BME280;64129;53.508;10.476;2023-04-03T08:39:01;103009.03;;;6.32;48.58
75543;BME280;64129;53.508;10.476;2023-04-03T08:41:34;103004.63;;;6.61;48.83
75543;BME280;64129;53.508;10.476;2023-04-03T08:47:23;103007.41;;;6.97;49.12
75543;BME280;64129;53.508;10.476;2023-04-03T08:49:57;103008.69;;;6.80;49.11
75543;BME280;64129;53.508;10.476;2023-04-03T08:52:36;103002.38;;;7.06;49.37
75543;BME280;64129;53.508;10.476;2023-04-03T08:55:10;102999.69;;;7.38;49.44
75543;BME280;64129;53.508;10.476;2023-04-03T08:57:43;103007.03;;;7.49;46.84
75543;BME280;64129;53.508;10.476;2023-04-03T09:02:43;103000.22;;;7.59;47.20
75543;BME280;64129;53.508;10.476;2023-04-03T09:08:05;103009.47;;;8.12;48.19
75543;BME280;64129;53.508;10.476;2023-04-03T09:10:34;102995.59;;;8.24;46.40
75543;BME280;64129;53.508;10.476;2023-04-03T09:13:30;102990.44;;;8.68;44.54
75543;BME280;64129;53.508;10.476;2023-04-03T09:16:00;102998.38;;;8.30;45.21
75543;BME280;64129;53.508;10.476;2023-04-03T09:18:30;102989.00;;;8.85;43.82
75543;BME280;64129;53.508;10.476;2023-04-03T09:21:09;102994.41;;;9.91;44.46
75543;BME280;64129;53.508;10.476;2023-04-03T09:23:45;102987.72;;;9.10;47.06
75543;BME280;64129;53.508;10.476;2023-04-03T09:26:25;102990.97;;;8.97;44.23
75543;BME280;64129;53.508;10.476;2023-04-03T09:28:54;102992.13;;;9.10;45.87
75543;BME280;64129;53.508;10.476;2023-04-03T09:31:25;102987.41;;;9.42;43.44
75543;BME280;64129;53.508;10.476;2023-04-03T09:33:59;102991.00;;;8.98;43.03
75543;BME280;64129;53.508;10.476;2023-04-03T09:36:46;102988.31;;;9.42;43.36
75543;BME280;64129;53.508;10.476;2023-04-03T09:39:18;102991.50;;;9.74;42.65
75543;BME280;64129;53.508;10.476;2023-04-03T09:42:04;102991.19;;;9.57;43.07
75543;BME280;64129;53.508;10.476;2023-04-03T09:44:36;102988.41;;;10.04;43.96
75543;BME280;64129;53.508;10.476;2023-04-03T09:47:24;102987.41;;;9.96;43.42
75543;BME280;64129;53.508;10.476;2023-04-03T09:50:10;102979.63;;;10.07;41.04
75543;BME280;64129;53.508;10.476;2023-04-03T09:52:47;102984.69;;;9.93;40.19
75543;BME280;64129;53.508;10.476;2023-04-03T09:55:19;102980.00;;;9.74;41.52
75543;BME280;64129;53.508;10.476;2023-04-03T09:57:54;102972.38;;;9.98;39.85
75543;BME280;64129;53.508;10.476;2023-04-03T10:00:25;102966.44;;;10.14;42.37
75543;BME280;64129;53.508;10.476;2023-04-03T10:02:55;102969.44;;;11.13;39.82
75543;BME280;64129;53.508;10.476;2023-04-03T10:10:41;102961.47;;;11.14;38.36
75543;BME280;64129;53.508;10.476;2023-04-03T10:13:19;102950.19;;;11.44;38.85
75543;BME280;64129;53.508;10.476;2023-04-03T10:15:56;102951.97;;;11.42;37.50
75543;BME280;64129;53.508;10.476;2023-04-03T10:21:15;102950.59;;;11.87;37.33
75543;BME280;64129;53.508;10.476;2023-04-03T10:26:52;102954.81;;;10.74;36.83
75543;BME280;64129;53.508;10.476;2023-04-03T10:29:48;102949.84;;;11.05;36.19
75543;BME280;64129;53.508;10.476;2023-04-03T10:34:56;102947.38;;;12.49;35.46
75543;BME280;64129;53.508;10.476;2023-04-03T10:37:35;102937.56;;;12.45;34.79
75543;BME280;64129;53.508;10.476;2023-04-03T10:40:30;102939.75;;;11.70;35.69
75543;BME280;64129;53.508;10.476;2023-04-03T10:51:20;102930.66;;;11.39;36.88
75543;BME280;64129;53.508;10.476;2023-04-03T10:56:37;102930.47;;;11.15;37.62
75543;BME280;64129;53.508;10.476;2023-04-03T11:01:48;102928.56;;;11.05;39.14
75543;BME280;64129;53.508;10.476;2023-04-03T11:04:18;102918.72;;;10.94;36.18
75543;BME280;64129;53.508;10.476;2023-04-03T11:06:50;102913.63;;;11.17;37.87
75543;BME280;64129;53.508;10.476;2023-04-03T11:09:28;102909.31;;;10.44;38.05
75543;BME280;64129;53.508;10.476;2023-04-03T11:12:03;102910.19;;;10.43;39.21
75543;BME280;64129;53.508;10.476;2023-04-03T11:14:32;102910.34;;;10.58;38.33
75543;BME280;64129;53.508;10.476;2023-04-03T11:17:11;102906.97;;;11.77;37.47
75543;BME280;64129;53.508;10.476;2023-04-03T11:19:49;102897.94;;;11.48;36.57
75543;BME280;64129;53.508;10.476;2023-04-03T11:22:30;102902.91;;;10.26;36.82
75543;BME280;64129;53.508;10.476;2023-04-03T11:28:03;102896.09;;;11.44;36.59
75543;BME280;64129;53.508;10.476;2023-04-03T11:30:42;102892.06;;;12.02;34.98
75543;BME280;64129;53.508;10.476;2023-04-03T11:35:47;102883.63;;;11.35;35.24
75543;BME280;64129;53.508;10.476;2023-04-03T11:38:28;102879.72;;;10.16;35.05
75543;BME280;64129;53.508;10.476;2023-04-03T11:40:57;102885.16;;;10.22;37.61
75543;BME280;64129;53.508;10.476;2023-04-03T11:43:27;102885.16;;;10.22;37.88
75543;BME280;64129;53.508;10.476;2023-04-03T11:46:04;102887.34;;;10.58;36.44
75543;BME280;64129;53.508;10.476;2023-04-03T11:53:43;102884.53;;;11.40;32.38
75543;BME280;64129;53.508;10.476;2023-04-03T12:01:49;102875.50;;;13.36;32.83
75543;BME280;64129;53.508;10.476;2023-04-03T12:04:19;102877.28;;;13.17;32.25
75543;BME280;64129;53.508;10.476;2023-04-03T12:09:24;102867.44;;;13.71;31.77
75543;BME280;64129;53.508;10.476;2023-04-03T12:11:51;102861.16;;;13.96;31.24
75543;BME280;64129;53.508;10.476;2023-04-03T12:14:22;102861.16;;;13.98;31.57
75543;BME280;64129;53.508;10.476;2023-04-03T12:16:52;102865.47;;;14.31;30.00
75543;BME280;64129;53.508;10.476;2023-04-03T12:19:35;102861.94;;;14.18;28.63
75543;BME280;64129;53.508;10.476;2023-04-03T12:22:08;102856.66;;;14.08;30.45
75543;BME280;64129;53.508;10.476;2023-04-03T12:24:44;102851.78;;;14.84;30.10
75543;BME280;64129;53.508;10.476;2023-04-03T12:27:25;102856.31;;;14.75;29.29
75543;BME280;64129;53.508;10.476;2023-04-03T12:32:48;102847.81;;;13.87;29.04
75543;BME280;64129;53.508;10.476;2023-04-03T12:35:30;102856.69;;;12.38;30.42
75543;BME280;64129;53.508;10.476;2023-04-03T12:40:43;102845.22;;;13.51;31.10
75543;BME280;64129;53.508;10.476;2023-04-03T12:43:39;102847.91;;;13.49;31.79
75543;BME280;64129;53.508;10.476;2023-04-03T12:48:56;102836.88;;;14.48;30.59
75543;BME280;64129;53.508;10.476;2023-04-03T12:51:34;102839.06;;;13.24;28.99
75543;BME280;64129;53.508;10.476;2023-04-03T12:54:04;102837.91;;;14.17;27.46
75543;BME280;64129;53.508;10.476;2023-04-03T12:56:39;102842.38;;;14.12;27.87
75543;BME280;64129;53.508;10.476;2023-04-03T12:59:26;102840.59;;;15.42;26.88
75543;BME280;64129;53.508;10.476;2023-04-03T13:01:55;102834.34;;;15.42;28.33
75543;BME280;64129;53.508;10.476;2023-04-03T13:04:22;102837.13;;;13.84;29.08
75543;BME280;64129;53.508;10.476;2023-04-03T13:06:49;102834.22;;;14.39;29.84
75543;BME280;64129;53.508;10.476;2023-04-03T13:09:28;102839.91;;;13.58;29.79
75543;BME280;64129;53.508;10.476;2023-04-03T13:11:59;102829.16;;;13.78;31.35
75543;BME280;64129;53.508;10.476;2023-04-03T13:14:27;102837.72;;;11.71;30.04
75543;BME280;64129;53.508;10.476;2023-04-03T13:19:32;102828.09;;;11.87;31.08
75543;BME280;64129;53.508;10.476;2023-04-03T13:22:05;102822.00;;;13.92;33.24
75543;BME280;64129;53.508;10.476;2023-04-03T13:24:35;102832.66;;;12.15;33.80
75543;BME280;64129;53.508;10.476;2023-04-03T13:27:06;102827.09;;;11.77;33.02
75543;BME280;64129;53.508;10.476;2023-04-03T13:29:35;102833.09;;;11.38;33.51
75543;BME280;64129;53.508;10.476;2023-04-03T13:32:03;102828.09;;;11.85;33.90
75543;BME280;64129;53.508;10.476;2023-04-03T13:34:42;102828.28;;;12.48;32.31
75543;BME280;64129;53.508;10.476;2023-04-03T13:37:52;102808.75;;;13.56;31.48
75543;BME280;64129;53.508;10.476;2023-04-03T13:40:20;102810.47;;;13.75;31.21
75543;BME280;64129;53.508;10.476;2023-04-03T13:43:01;102812.34;;;13.12;31.69
75543;BME280;64129;53.508;10.476;2023-04-03T13:45:30;102817.69;;;13.00;31.87
75543;BME280;64129;53.508;10.476;2023-04-03T13:48:17;102823.03;;;12.97;32.08
75543;BME280;64129;53.508;10.476;2023-04-03T13:50:57;102818.59;;;13.23;32.30
75543;BME280;64129;53.508;10.476;2023-04-03T13:53:26;102806.94;;;13.67;31.32
75543;BME280;64129;53.508;10.476;2023-04-03T13:55:57;102799.38;;;14.54;31.00
75543;BME280;64129;53.508;10.476;2023-04-03T13:58:26;102806.91;;;13.73;31.43
75543;BME280;64129;53.508;10.476;2023-04-03T14:01:33;102811.38;;;12.22;31.48
75543;BME280;64129;53.508;10.476;2023-04-03T14:04:09;102811.34;;;13.76;30.59
75543;BME280;64129;53.508;10.476;2023-04-03T14:06:36;102804.22;;;13.81;29.13
75543;BME280;64129;53.508;10.476;2023-04-03T14:09:03;102806.88;;;13.84;27.70
75543;BME280;64129;53.508;10.476;2023-04-03T14:11:30;102792.66;;;13.76;29.01
75543;BME280;64129;53.508;10.476;2023-04-03T14:14:11;102810.59;;;12.93;31.65